Stockville, Nebraska
Current Conditions -  °F | °C
As of 8:53 AM on Tuesday 21 Oct 2014 (Local Time) from KMCK Reporting Station
Clear Clear  
Wind Chill: 46°   Ceiling: Unl
Heat Index: 46°   Visibility: 9mi
Dew Point: 40°   Wind: 0mph
Humidity: 79%   Direction: NA
Pressure: 30.07"   Gusts: NA
Location:  40.53°N, 100.38°W
Report Text: KMCK 211353Z AUTO 00000KT 9SM CLR 08/04 A3007 RMK AO2 SLP181 T00780044
Loading
Personal Weather Stations






























Interactive Weather Map
Tropical Storm Tracking
New forecast layout! Learn more

10-Day Weather Forecast

Advertisements
Track Severe Weather on mobile